Forrest Airport
YFRT : now visible

Airfield :











YOU CAN JOIN US ON...

 
LOGIN :

Register | Disclaimer

   EN    FR    IT 

 









Legend :    VFR   Marginal VFR   IFR   Intensive IFR   Very Intensive IFR
Visi :
Ceiling :
>= 8 km
>= 3000ft
5 to 8 km
1000 to 3000 ft
1500m to 5 km
500 to 1000 ft
800 to 1500m
200 to 500 ft
< 800m
< 200 ft
Symbols :   Thunderstorms  Fog  Heavy snow  Heavy precipitations  Wind > 20 kt






- Airport Elevation : 511 ft
- IATA code : FOS


YFRT - Forrest

CURRENT METAR :
  • 200000Z AUTO 07015KT 9999 // NCD 28/08 Q1015

EXPIRED METARs :
  • 192330Z AUTO 08015KT 9999 // NCD 27/08 Q1015 RF00.0/000.0
  • 192300Z AUTO 08012KT 9999 // NCD 24/09 Q1016 RF00.0/000.0
  • 192230Z AUTO 08012KT 9999 // NCD 21/11 Q1016 RF00.0/000.0
  • 192200Z AUTO 09008KT 9999 // NCD 19/12 Q1016 RF00.0/000.0
  • 192130Z AUTO 09006KT 9999 // NCD 17/12 Q1016 RF00.0/000.0

TAF TAF YFRT
Valid from the 19 at 20:00 until the 20 at 08:00 UTC


191842Z 1920/2008 08009KT CAVOK
FM200000 05014KT CAVOK
FM200200 03009KT CAVOK
YMMM FIR / Oceania



MET'MAP, your aeronautical weather chart ! - Copyright ORBIFLY December 2007 - Disclaimer

ORBIFLY MET'MAP TEAM :

Programming & Development : Alexandra Zaïnal
Concept & original design : Baudouin d'Aumeries
Assistance for programming : Marc-Olivier Méhu
Technical & hardware support : Manuel Goepfert

Contact : metmap@orbifly.com




SOURCES & CREDITS :

   NOAA       Earth
Advisory